createdAt,value
2019-05-13T00:02:20.857Z,104081.38
2019-05-13T00:04:49.035Z,104077.63
2019-05-13T00:07:17.151Z,104072.98
2019-05-13T00:09:45.311Z,104074.84
2019-05-13T00:12:13.824Z,104075.13
2019-05-13T00:14:43.392Z,104071.52
2019-05-13T00:17:14.396Z,104072.17
2019-05-13T00:19:44.104Z,104071.14
2019-05-13T00:22:13.910Z,104073.79
2019-05-13T00:24:43.705Z,104071.73
2019-05-13T00:27:11.332Z,104074.53
2019-05-13T00:29:39.452Z,104078.98
2019-05-13T00:32:07.602Z,104080.84
2019-05-13T00:34:35.823Z,104087.09
2019-05-13T00:37:11.092Z,104081.78
2019-05-13T00:39:33.898Z,104078.53
2019-05-13T00:42:04.084Z,104085.05
2019-05-13T00:44:33.781Z,104079.08
2019-05-13T00:47:04.173Z,104079.88
2019-05-13T00:49:31.707Z,104076.52
2019-05-13T00:51:59.823Z,104083.72
2019-05-13T00:54:27.963Z,104085.67
2019-05-13T00:56:56.092Z,104087.66
2019-05-13T00:59:24.399Z,104084.80
2019-05-13T01:01:53.279Z,104083.25
2019-05-13T01:04:23.260Z,104081.70
2019-05-13T01:06:53.615Z,104083.29
2019-05-13T01:09:23.573Z,104083.18
2019-05-13T01:11:53.544Z,104087.63
2019-05-13T01:14:23.349Z,104087.77
2019-05-13T01:16:50.961Z,104100.92
2019-05-13T01:19:19.073Z,104103.55
2019-05-13T01:21:47.250Z,104097.59
2019-05-13T01:24:15.373Z,104093.97
2019-05-13T01:26:43.925Z,104095.02
2019-05-13T01:29:13.469Z,104095.81
2019-05-13T01:31:43.442Z,104093.35
2019-05-13T01:34:14.079Z,104096.23
2019-05-13T01:36:41.644Z,104099.77
2019-05-13T01:39:09.753Z,104101.72
2019-05-13T01:41:37.964Z,104100.16
2019-05-13T01:44:06.130Z,104102.64
2019-05-13T01:46:37.063Z,104103.05
2019-05-13T01:49:05.722Z,104105.49
2019-05-13T01:51:33.858Z,104109.94
2019-05-13T01:54:04.384Z,104101.09
2019-05-13T01:56:33.795Z,104108.38
2019-05-13T01:59:04.768Z,104104.22
2019-05-13T02:01:33.706Z,104108.65
2019-05-13T02:04:03.987Z,104107.63
2019-05-13T02:06:33.669Z,104104.37
2019-05-13T02:09:03.804Z,104102.56
2019-05-13T02:11:33.984Z,104110.77
2019-05-13T02:14:05.625Z,104112.85
2019-05-13T02:16:34.222Z,104104.39
2019-05-13T02:19:03.945Z,104108.58
2019-05-13T02:21:33.667Z,104108.31
2019-05-13T02:24:04.231Z,104108.31
2019-05-13T02:26:31.860Z,104116.39
2019-05-13T02:29:00.101Z,104113.14
2019-05-13T02:31:41.405Z,104110.03
2019-05-13T02:33:58.067Z,104112.13
2019-05-13T02:36:26.232Z,104114.96
2019-05-13T02:38:54.335Z,104118.35
2019-05-13T02:41:22.939Z,104120.84
2019-05-13T02:43:52.651Z,104122.89
2019-05-13T02:46:22.636Z,104121.59
2019-05-13T02:48:52.763Z,104117.06
2019-05-13T02:51:23.021Z,104126.56
2019-05-13T02:53:52.319Z,104120.70
2019-05-13T02:56:22.654Z,104124.09
2019-05-13T02:58:52.559Z,104126.57
2019-05-13T03:01:22.240Z,104124.22
2019-05-13T03:03:52.901Z,104124.10
2019-05-13T03:06:22.303Z,104122.69
2019-05-13T03:08:53.981Z,104125.64
2019-05-13T03:11:22.480Z,104124.63
2019-05-13T03:13:52.635Z,104124.11
2019-05-13T03:16:19.406Z,104122.55
2019-05-13T03:18:47.508Z,104127.23
2019-05-13T03:21:15.646Z,104134.13
2019-05-13T03:23:44.458Z,104132.28
2019-05-13T03:26:13.458Z,104131.77
2019-05-13T03:28:43.517Z,104135.81
2019-05-13T03:31:16.971Z,104134.87
2019-05-13T03:33:46.064Z,104136.56
2019-05-13T03:36:16.846Z,104135.66
2019-05-13T03:38:59.770Z,104139.71
2019-05-13T03:41:13.792Z,104135.16
2019-05-13T03:43:43.467Z,104138.27
2019-05-13T03:46:12.715Z,104137.23
2019-05-13T03:48:42.862Z,104138.14
2019-05-13T03:51:13.230Z,104142.95
2019-05-13T03:53:43.183Z,104137.75
2019-05-13T03:56:12.820Z,104147.63
2019-05-13T03:58:43.332Z,104142.04
2019-05-13T04:01:12.974Z,104144.75
2019-05-13T04:03:43.884Z,104143.97
2019-05-13T04:06:13.562Z,104141.01
2019-05-13T04:08:43.412Z,104140.07
2019-05-13T04:11:12.568Z,104140.61
2019-05-13T04:13:42.923Z,104138.53
2019-05-13T04:16:12.771Z,104138.92
2019-05-13T04:18:42.541Z,104142.14
2019-05-13T04:21:13.124Z,104140.84
2019-05-13T04:23:42.557Z,104144.50
2019-05-13T04:26:10.163Z,104153.07
2019-05-13T04:28:38.437Z,104152.94
2019-05-13T04:31:06.569Z,104154.23
2019-05-13T04:33:34.787Z,104154.33
2019-05-13T04:36:02.973Z,104159.27
2019-05-13T04:38:33.180Z,104156.66
2019-05-13T04:41:03.918Z,104162.34
2019-05-13T04:43:34.852Z,104165.59
2019-05-13T04:46:02.669Z,104164.78
2019-05-13T04:48:33.910Z,104163.21
2019-05-13T04:51:03.038Z,104150.19
2019-05-13T04:53:33.387Z,104160.03
2019-05-13T04:56:03.093Z,104158.20
2019-05-13T04:58:32.187Z,104160.78
2019-05-13T05:01:59.449Z,104157.90
2019-05-13T05:04:44.070Z,104152.77
2019-05-13T05:07:52.536Z,104166.52
2019-05-13T05:11:02.725Z,104164.78
2019-05-13T05:14:02.743Z,104166.67
2019-05-13T05:17:04.247Z,104166.67
2019-05-13T05:20:16.406Z,104165.34
2019-05-13T05:23:24.506Z,104167.00
2019-05-13T05:26:15.320Z,104165.69
2019-05-13T05:29:42.268Z,104165.41
2019-05-13T05:32:23.873Z,104160.30
2019-05-13T05:35:26.829Z,104165.11
2019-05-13T05:38:18.338Z,104162.72
2019-05-13T05:40:48.133Z,104164.52
2019-05-13T05:43:18.905Z,104166.79
2019-05-13T05:45:47.085Z,104170.25
2019-05-13T05:48:16.979Z,104168.65
2019-05-13T05:50:46.693Z,104174.45
2019-05-13T05:53:16.753Z,104176.72
2019-05-13T05:55:48.039Z,104170.80
2019-05-13T05:58:18.365Z,104167.91
2019-05-13T06:00:52.069Z,104176.03
2019-05-13T06:03:21.835Z,104173.07
2019-05-13T06:05:51.268Z,104173.36
2019-05-13T06:08:22.067Z,104173.54
2019-05-13T06:10:52.915Z,104172.41
2019-05-13T06:13:21.423Z,104168.91
2019-05-13T06:15:51.361Z,104160.95
2019-05-13T06:18:22.118Z,104160.31
2019-05-13T06:20:51.221Z,104159.67
2019-05-13T06:23:22.170Z,104162.05
2019-05-13T06:25:52.410Z,104163.91
2019-05-13T06:28:21.707Z,104158.80
2019-05-13T06:30:52.594Z,104166.12
2019-05-13T06:33:21.245Z,104164.56
2019-05-13T06:35:51.926Z,104167.81
2019-05-13T06:38:19.477Z,104171.56
2019-05-13T06:40:59.268Z,104168.97
2019-05-13T06:43:17.500Z,104171.31
2019-05-13T06:45:45.631Z,104181.89
2019-05-13T06:48:13.758Z,104176.40
2019-05-13T06:50:41.897Z,104180.95
2019-05-13T06:53:12.057Z,104180.17
2019-05-13T06:55:41.742Z,104183.69
2019-05-13T06:58:11.390Z,104187.05
2019-05-13T07:00:42.507Z,104183.73
2019-05-13T07:03:11.956Z,104192.60
2019-05-13T07:05:42.163Z,104192.72
2019-05-13T07:08:11.795Z,104194.54
2019-05-13T07:10:41.458Z,104188.83
2019-05-13T07:13:11.216Z,104194.24
2019-05-13T07:15:41.430Z,104194.24
2019-05-13T07:18:11.761Z,104191.72
2019-05-13T07:20:42.530Z,104194.44
2019-05-13T07:23:12.156Z,104194.24
2019-05-13T07:25:42.027Z,104198.55
2019-05-13T07:28:09.574Z,104207.19
2019-05-13T07:30:42.398Z,104212.84
2019-05-13T07:33:12.554Z,104207.38
2019-05-13T07:35:44.364Z,104209.78
2019-05-13T07:38:11.760Z,104205.57
2019-05-13T07:40:41.833Z,104204.14
2019-05-13T07:43:12.062Z,104200.17
2019-05-13T07:45:42.075Z,104209.84
2019-05-13T07:48:20.653Z,104213.94
2019-05-13T07:50:51.664Z,104208.85
2019-05-13T07:53:12.199Z,104204.01
2019-05-13T07:55:39.166Z,104210.19
2019-05-13T07:58:07.324Z,104213.90
2019-05-13T08:00:35.432Z,104211.23
2019-05-13T08:03:03.648Z,104213.58
2019-05-13T08:05:31.842Z,104205.69
2019-05-13T08:08:02.290Z,104212.46
2019-05-13T08:10:31.907Z,104209.67
2019-05-13T08:13:02.199Z,104208.94
2019-05-13T08:15:31.684Z,104214.53
2019-05-13T08:18:02.060Z,104212.69
2019-05-13T08:20:29.306Z,104210.11
2019-05-13T08:22:57.441Z,104214.31
2019-05-13T08:25:25.783Z,104217.09
2019-05-13T08:27:53.907Z,104216.00
2019-05-13T08:30:22.749Z,104217.09
2019-05-13T08:32:52.309Z,104209.56
2019-05-13T08:35:22.591Z,104208.68
2019-05-13T08:37:52.016Z,104208.68
2019-05-13T08:40:23.294Z,104208.41
2019-05-13T08:42:52.033Z,104208.16
2019-05-13T08:45:22.364Z,104207.13
2019-05-13T08:47:51.204Z,104209.22
2019-05-13T08:50:21.885Z,104207.66
2019-05-13T08:52:51.244Z,104201.75
2019-05-13T08:55:21.433Z,104198.59
2019-05-13T08:57:51.471Z,104202.37
2019-05-13T09:00:41.422Z,104201.86
2019-05-13T09:03:12.038Z,104202.86
2019-05-13T09:05:41.312Z,104201.80
2019-05-13T09:08:11.402Z,104202.91
2019-05-13T09:10:41.369Z,104202.17
2019-05-13T09:13:09.339Z,104202.33
2019-05-13T09:15:37.533Z,104205.41
2019-05-13T09:18:05.700Z,104203.53
2019-05-13T09:20:33.858Z,104209.55
2019-05-13T09:23:03.937Z,104195.97
2019-05-13T09:25:32.141Z,104195.46
2019-05-13T09:28:02.598Z,104196.47
2019-05-13T09:30:31.595Z,104198.28
2019-05-13T09:33:01.959Z,104197.27
2019-05-13T09:35:31.591Z,104203.98
2019-05-13T09:38:03.113Z,104195.05
2019-05-13T09:40:31.414Z,104193.16
2019-05-13T09:42:59.555Z,104193.36
2019-05-13T09:45:27.709Z,104193.97
2019-05-13T09:47:55.816Z,104191.42
2019-05-13T09:50:31.459Z,104188.50
2019-05-13T09:52:54.939Z,104195.34
2019-05-13T09:55:28.965Z,104184.22
2019-05-13T09:57:52.895Z,104180.11
2019-05-13T10:00:21.772Z,104184.84
2019-05-13T10:02:51.647Z,104188.25
2019-05-13T10:05:22.374Z,104188.08
2019-05-13T10:07:50.697Z,104185.98
2019-05-13T10:10:18.975Z,104189.81
2019-05-13T10:13:06.081Z,104190.30
2019-05-13T10:15:17.123Z,104184.95
2019-05-13T10:17:45.284Z,104185.83
2019-05-13T10:20:14.847Z,104186.31
2019-05-13T10:22:42.975Z,104190.83
2019-05-13T10:25:14.106Z,104186.64
2019-05-13T10:27:46.067Z,104179.16
2019-05-13T10:30:14.335Z,104170.60
2019-05-13T10:32:42.815Z,104171.14
2019-05-13T10:35:11.468Z,104180.52
2019-05-13T10:37:41.856Z,104169.39
2019-05-13T10:40:11.603Z,104170.19
2019-05-13T10:42:39.979Z,104166.33
2019-05-13T10:45:08.081Z,104161.13
2019-05-13T10:47:36.227Z,104165.06
2019-05-13T10:50:04.992Z,104170.19
2019-05-13T10:52:33.154Z,104176.41
2019-05-13T10:55:03.009Z,104173.70
2019-05-13T10:57:32.032Z,104172.23
2019-05-13T11:00:03.167Z,104175.63
2019-05-13T11:02:32.723Z,104170.16
2019-05-13T11:05:02.921Z,104170.56
2019-05-13T11:07:32.066Z,104168.22
2019-05-13T11:10:00.092Z,104166.32
2019-05-13T11:12:29.580Z,104163.10
2019-05-13T11:14:57.721Z,104165.62
2019-05-13T11:17:30.876Z,104151.20
2019-05-13T11:19:55.701Z,104151.20
2019-05-13T11:22:23.892Z,104156.34
2019-05-13T11:24:52.077Z,104146.69
2019-05-13T11:27:23.281Z,104149.66
2019-05-13T11:29:52.381Z,104148.45
2019-05-13T11:32:21.614Z,104150.25
2019-05-13T11:34:52.120Z,104143.62
2019-05-13T11:37:19.626Z,104140.53
2019-05-13T11:39:47.784Z,104145.75
2019-05-13T11:42:15.927Z,104140.29
2019-05-13T11:44:44.131Z,104151.30
2019-05-13T11:47:12.812Z,104132.30
2019-05-13T11:49:42.598Z,104133.92
2019-05-13T11:52:11.642Z,104133.27
2019-05-13T11:54:42.569Z,104131.48
2019-05-13T11:57:12.525Z,104128.24
2019-05-13T11:59:42.981Z,104127.87
2019-05-13T12:02:13.256Z,104126.56
2019-05-13T12:04:43.043Z,104128.30
2019-05-13T12:07:12.990Z,104127.27
2019-05-13T12:09:39.711Z,104130.67
2019-05-13T12:12:07.857Z,104124.05
2019-05-13T12:14:50.654Z,104125.57
2019-05-13T12:17:06.014Z,104127.48
2019-05-13T12:19:34.109Z,104126.72
2019-05-13T12:22:02.991Z,104130.72
2019-05-13T12:24:31.531Z,104120.41
2019-05-13T12:27:03.300Z,104123.64
2019-05-13T12:29:29.513Z,104128.47
2019-05-13T12:31:57.832Z,104127.61
2019-05-13T12:34:25.930Z,104126.31
2019-05-13T12:36:54.030Z,104121.32
2019-05-13T12:39:23.899Z,104120.44
2019-05-13T12:41:53.734Z,104112.34
2019-05-13T12:44:22.830Z,104119.33
2019-05-13T12:46:54.115Z,104115.52
2019-05-13T12:49:22.057Z,104127.25
2019-05-13T12:51:51.692Z,104110.48
2019-05-13T12:54:23.444Z,104110.48
2019-05-13T12:56:52.411Z,104124.08
2019-05-13T12:59:22.231Z,104127.58
2019-05-13T13:01:51.945Z,104119.39
2019-05-13T13:04:23.632Z,104123.42
2019-05-13T13:06:52.789Z,104115.94
2019-05-13T13:09:22.357Z,104113.61
2019-05-13T13:11:49.388Z,104119.38
2019-05-13T13:14:17.926Z,104131.39
2019-05-13T13:16:46.775Z,104123.80
2019-05-13T13:19:15.246Z,104121.21
2019-05-13T13:21:44.997Z,104128.31
2019-05-13T13:24:13.105Z,104107.84
2019-05-13T13:26:42.831Z,104112.93
2019-05-13T13:29:11.092Z,104113.80
2019-05-13T13:31:43.297Z,104115.48
2019-05-13T13:34:16.463Z,104105.81
2019-05-13T13:36:39.245Z,104097.33
2019-05-13T13:39:07.815Z,104096.06
2019-05-13T13:41:35.906Z,104095.75
2019-05-13T13:44:05.425Z,104096.98
2019-05-13T13:46:42.224Z,104089.78
2019-05-13T13:49:03.808Z,104100.78
2019-05-13T13:51:34.384Z,104101.10
2019-05-13T13:54:01.820Z,104091.75
2019-05-13T13:56:32.708Z,104092.08
2019-05-13T13:59:00.127Z,104098.59
2019-05-13T14:01:32.457Z,104089.61
2019-05-13T14:04:02.806Z,104092.89
2019-05-13T14:07:22.387Z,104098.33
2019-05-13T14:09:01.430Z,104086.18
2019-05-13T14:11:29.304Z,104088.75
2019-05-13T14:13:57.397Z,104100.24
2019-05-13T14:16:31.316Z,104088.75
2019-05-13T14:18:55.472Z,104087.89
2019-05-13T14:21:23.767Z,104086.81
2019-05-13T14:23:52.203Z,104084.52
2019-05-13T14:26:22.236Z,104090.78
2019-05-13T14:28:53.547Z,104081.05
2019-05-13T14:31:21.601Z,104080.19
2019-05-13T14:33:52.034Z,104070.20
2019-05-13T14:36:22.639Z,104071.75
2019-05-13T14:38:52.841Z,104072.14
2019-05-13T14:41:21.798Z,104074.80
2019-05-13T14:43:51.461Z,104069.92
2019-05-13T14:46:24.918Z,104068.88
2019-05-13T14:48:49.054Z,104061.75
2019-05-13T14:51:17.184Z,104059.45
2019-05-13T14:53:45.261Z,104061.41
2019-05-13T14:56:14.375Z,104054.64
2019-05-13T14:58:42.778Z,104052.34
2019-05-13T15:01:17.910Z,104045.06
2019-05-13T15:03:41.576Z,104048.95
2019-05-13T15:06:11.985Z,104049.84
2019-05-13T15:08:42.170Z,104048.60
2019-05-13T15:11:09.730Z,104049.11
2019-05-13T15:13:37.839Z,104040.91
2019-05-13T15:16:06.001Z,104039.42
2019-05-13T15:18:34.135Z,104043.37
2019-05-13T15:21:03.984Z,104050.37
2019-05-13T15:23:32.115Z,104040.23
2019-05-13T15:26:02.165Z,104039.27
2019-05-13T15:28:31.634Z,104043.78
2019-05-13T15:31:00.154Z,104044.27
2019-05-13T15:33:28.865Z,104042.09
2019-05-13T15:35:57.036Z,104036.70
2019-05-13T15:38:25.163Z,104037.03
2019-05-13T15:40:53.286Z,104048.42
2019-05-13T15:43:22.389Z,104039.19
2019-05-13T15:45:51.438Z,104040.08
2019-05-13T15:48:21.574Z,104031.06
2019-05-13T15:50:51.358Z,104027.95
2019-05-13T15:53:21.401Z,104034.07
2019-05-13T15:55:51.167Z,104030.55
2019-05-13T15:58:19.209Z,104018.69
2019-05-13T16:00:47.434Z,104016.83
2019-05-13T16:03:17.161Z,104019.70
2019-05-13T16:05:45.311Z,104014.91
2019-05-13T16:08:20.775Z,104017.03
2019-05-13T16:10:54.850Z,104014.23
2019-05-13T16:13:27.836Z,104006.64
2019-05-13T16:15:56.146Z,104011.91
2019-05-13T16:18:24.299Z,104006.33
2019-05-13T16:20:54.611Z,104002.57
2019-05-13T16:23:22.911Z,104008.50
2019-05-13T16:25:52.133Z,104005.98
2019-05-13T16:28:20.347Z,104004.74
2019-05-13T16:30:48.464Z,103996.55
2019-05-13T16:33:16.662Z,103989.77
2019-05-13T16:35:47.523Z,103996.65
2019-05-13T16:38:15.679Z,103992.33
2019-05-13T16:40:43.810Z,103991.52
2019-05-13T16:43:12.878Z,103994.98
2019-05-13T16:45:42.321Z,103996.42
2019-05-13T16:48:12.352Z,103993.42
2019-05-13T16:50:41.838Z,103987.22
2019-05-13T16:53:10.119Z,103984.76
2019-05-13T16:55:38.195Z,103994.72
2019-05-13T16:58:06.290Z,103993.03
2019-05-13T17:00:34.440Z,103990.13
2019-05-13T17:03:02.566Z,103997.53
2019-05-13T17:05:32.627Z,103997.62
2019-05-13T17:08:02.146Z,104000.75
2019-05-13T17:10:31.622Z,103995.47
2019-05-13T17:13:02.917Z,103996.80
2019-05-13T17:15:31.213Z,103998.39
2019-05-13T17:18:09.149Z,103993.41
2019-05-13T17:20:29.251Z,103996.53
2019-05-13T17:22:57.428Z,104001.16
2019-05-13T17:25:25.526Z,104002.00
2019-05-13T17:27:53.738Z,104004.11
2019-05-13T17:30:22.216Z,104004.05
2019-05-13T17:32:51.574Z,104009.83
2019-05-13T17:35:21.898Z,104004.86
2019-05-13T17:37:51.217Z,104005.34
2019-05-13T17:40:19.436Z,104006.17
2019-05-13T17:42:47.594Z,104004.86
2019-05-13T17:45:15.784Z,104003.91
2019-05-13T17:47:43.912Z,104005.71
2019-05-13T17:50:12.276Z,104000.08
2019-05-13T17:52:40.399Z,104004.45
2019-05-13T17:55:08.732Z,104004.97
2019-05-13T17:57:36.884Z,104001.84
2019-05-13T18:00:05.336Z,104004.53
2019-05-13T18:02:33.494Z,104006.78
2019-05-13T18:05:02.178Z,104005.03
2019-05-13T18:07:32.127Z,104011.64
2019-05-13T18:10:01.533Z,104013.78
2019-05-13T18:12:29.826Z,104015.06
2019-05-13T18:14:58.000Z,104013.46
2019-05-13T18:17:26.230Z,104013.90
2019-05-13T18:19:54.420Z,104013.25
2019-05-13T18:22:22.613Z,104016.90
2019-05-13T18:24:51.893Z,104019.13
2019-05-13T18:27:22.168Z,104024.33
2019-05-13T18:29:51.337Z,104020.40
2019-05-13T18:32:21.475Z,104018.27
2019-05-13T18:34:49.448Z,104016.57
2019-05-13T18:37:17.560Z,104013.60
2019-05-13T18:39:45.730Z,104010.25
2019-05-13T18:42:51.894Z,104004.69
2019-05-13T18:45:22.058Z,104006.66
2019-05-13T18:47:51.350Z,104003.78
2019-05-13T18:50:21.832Z,104003.44
2019-05-13T18:52:52.311Z,104006.23
2019-05-13T18:55:19.603Z,104006.47
2019-05-13T18:57:47.719Z,104008.28
2019-05-13T19:00:15.944Z,104012.39
2019-05-13T19:02:44.091Z,104019.12
2019-05-13T19:05:12.407Z,104019.25
2019-05-13T19:07:41.835Z,104013.36
2019-05-13T19:10:11.519Z,104015.14
2019-05-13T19:12:42.028Z,104015.38
2019-05-13T19:15:11.366Z,104017.70
2019-05-13T19:17:41.529Z,104022.28
2019-05-13T19:20:11.657Z,104024.23
2019-05-13T19:22:41.281Z,104026.72
2019-05-13T19:25:11.994Z,104023.31
2019-05-13T19:27:41.299Z,104030.55
2019-05-13T19:30:11.917Z,104036.31
2019-05-13T19:32:41.696Z,104036.55
2019-05-13T19:35:11.700Z,104037.21
2019-05-13T19:37:42.217Z,104042.19
2019-05-13T19:40:09.964Z,104044.55
2019-05-13T19:42:38.085Z,104041.66
2019-05-13T19:45:06.451Z,104043.49
2019-05-13T19:47:34.660Z,104042.73
2019-05-13T19:50:02.809Z,104039.02
2019-05-13T19:52:32.043Z,104037.03
2019-05-13T19:55:01.782Z,104028.48
2019-05-13T19:57:31.794Z,104031.66
2019-05-13T20:00:01.402Z,104039.25
2019-05-13T20:02:31.614Z,104036.84
2019-05-13T20:05:01.210Z,104037.61
2019-05-13T20:07:31.673Z,104037.61
2019-05-13T20:09:59.514Z,104039.25
2019-05-13T20:12:27.647Z,104038.64
2019-05-13T20:14:55.831Z,104030.63
2019-05-13T20:17:24.070Z,104039.27
2019-05-13T20:19:53.677Z,104042.63
2019-05-13T20:22:21.793Z,104045.38
2019-05-13T20:24:51.423Z,104042.48
2019-05-13T20:27:21.018Z,104043.09
2019-05-13T20:29:51.191Z,104036.36
2019-05-13T20:32:19.316Z,104035.66
2019-05-13T20:34:47.535Z,104033.25
2019-05-13T20:37:15.968Z,104038.81
2019-05-13T20:39:44.085Z,104028.06
2019-05-13T20:42:12.620Z,104022.14
2019-05-13T20:44:41.979Z,104019.72
2019-05-13T20:47:10.387Z,104018.74
2019-05-13T20:51:15.880Z,104019.03
2019-05-13T20:53:44.090Z,104028.64
2019-05-13T20:56:12.263Z,104021.48
2019-05-13T20:58:42.194Z,104016.58
2019-05-13T21:01:11.169Z,104017.69
2019-05-13T21:03:41.827Z,104015.39
2019-05-13T21:06:11.557Z,104016.91
2019-05-13T21:08:41.512Z,104018.42
2019-05-13T21:11:11.477Z,104010.28
2019-05-13T21:13:41.247Z,104018.54
2019-05-13T21:16:11.450Z,104015.63
2019-05-13T21:18:41.849Z,104013.72
2019-05-13T21:21:11.109Z,104016.13
2019-05-13T21:23:39.073Z,104012.40
2019-05-13T21:26:07.837Z,104010.89
2019-05-13T21:28:38.961Z,104004.14
2019-05-13T21:31:07.105Z,104013.53
2019-05-13T21:33:35.302Z,104011.20
2019-05-13T21:36:03.476Z,104009.31
2019-05-13T21:38:33.735Z,104007.80
2019-05-13T21:41:03.169Z,103999.75
2019-05-13T21:43:32.331Z,103998.35
2019-05-13T21:46:01.947Z,103999.95
2019-05-13T21:48:32.413Z,104003.78
2019-05-13T21:51:00.558Z,104001.98
2019-05-13T21:53:28.729Z,103990.33
2019-05-13T21:55:56.944Z,103986.41
2019-05-13T21:58:25.103Z,103980.16
2019-05-13T22:00:54.673Z,103989.22
2019-05-13T22:03:22.833Z,103992.15
2019-05-13T22:05:51.618Z,103998.56
2019-05-13T22:08:21.602Z,103996.67
2019-05-13T22:10:52.204Z,103997.36
2019-05-13T22:13:19.923Z,104001.60
2019-05-13T22:15:48.144Z,104006.21
2019-05-13T22:18:16.292Z,103993.05
2019-05-13T22:20:49.854Z,103993.74
2019-05-13T22:23:14.407Z,103989.73
2019-05-13T22:25:43.782Z,103990.55
2019-05-13T22:28:12.113Z,103987.81
2019-05-13T22:30:41.267Z,103989.44
2019-05-13T22:33:09.523Z,103985.80
2019-05-13T22:35:37.700Z,103986.20
2019-05-13T22:38:05.869Z,103982.20
2019-05-13T22:40:34.092Z,103978.19
2019-05-13T22:43:02.294Z,103975.05
2019-05-13T22:45:31.302Z,103977.48
2019-05-13T22:48:02.499Z,103981.80
2019-05-13T22:50:31.010Z,103975.55
2019-05-13T22:53:01.399Z,103971.95
2019-05-13T22:55:31.184Z,103976.55
2019-05-13T22:58:01.509Z,103979.86
2019-05-13T23:00:31.558Z,103976.34
2019-05-13T23:03:01.496Z,103977.47
2019-05-13T23:05:28.985Z,103981.67
2019-05-13T23:07:57.160Z,103977.25
2019-05-13T23:10:25.339Z,103982.80
2019-05-13T23:12:53.478Z,103979.25
2019-05-13T23:15:21.619Z,103989.20
2019-05-13T23:17:51.883Z,103991.72
2019-05-13T23:20:21.294Z,103981.55
2019-05-13T23:22:51.709Z,103980.56
2019-05-13T23:25:21.432Z,103984.27
2019-05-13T23:27:51.284Z,103986.78
2019-05-13T23:30:19.410Z,103984.86
2019-05-13T23:32:47.660Z,103983.45
2019-05-13T23:35:15.855Z,103981.53
2019-05-13T23:37:44.013Z,103992.78
2019-05-13T23:40:12.795Z,103984.36
2019-05-13T23:42:40.989Z,103988.56
2019-05-13T23:45:11.286Z,103988.97
2019-05-13T23:47:41.545Z,103988.47
2019-05-13T23:50:09.203Z,103977.93
2019-05-13T23:52:37.392Z,103979.52
2019-05-13T23:55:06.263Z,103982.03
2019-05-13T23:57:34.419Z,103974.48
